sensor_id;sensor_type;location;lat;lon;timestamp;P1;durP1;ratioP1;P2;durP2;ratioP2
35847;SDS011;22332;51.954;20.118;2023-02-13T00:01:45;25.10;;;13.40;;
35847;SDS011;22332;51.954;20.118;2023-02-13T00:04:51;25.80;;;13.10;;
35847;SDS011;22332;51.954;20.118;2023-02-13T00:07:56;30.10;;;14.70;;
35847;SDS011;22332;51.954;20.118;2023-02-13T00:11:02;25.70;;;13.40;;
35847;SDS011;22332;51.954;20.118;2023-02-13T00:14:08;21.90;;;12.20;;
35847;SDS011;22332;51.954;20.118;2023-02-13T00:17:13;23.50;;;12.10;;
35847;SDS011;22332;51.954;20.118;2023-02-13T00:20:19;25.90;;;11.90;;
35847;SDS011;22332;51.954;20.118;2023-02-13T00:23:25;23.40;;;12.80;;
35847;SDS011;22332;51.954;20.118;2023-02-13T00:26:31;24.70;;;12.60;;
35847;SDS011;22332;51.954;20.118;2023-02-13T00:29:37;23.40;;;12.70;;
35847;SDS011;22332;51.954;20.118;2023-02-13T00:32:42;24.90;;;13.10;;
35847;SDS011;22332;51.954;20.118;2023-02-13T00:35:48;18.00;;;10.40;;
35847;SDS011;22332;51.954;20.118;2023-02-13T00:38:53;20.90;;;10.10;;
35847;SDS011;22332;51.954;20.118;2023-02-13T00:41:59;27.80;;;11.80;;
35847;SDS011;22332;51.954;20.118;2023-02-13T00:45:05;25.70;;;11.70;;
35847;SDS011;22332;51.954;20.118;2023-02-13T00:48:11;28.60;;;13.90;;
35847;SDS011;22332;51.954;20.118;2023-02-13T00:51:18;25.10;;;12.80;;
35847;SDS011;22332;51.954;20.118;2023-02-13T00:54:24;28.10;;;14.30;;
35847;SDS011;22332;51.954;20.118;2023-02-13T00:57:30;22.70;;;11.90;;
35847;SDS011;22332;51.954;20.118;2023-02-13T01:00:36;20.20;;;11.00;;
35847;SDS011;22332;51.954;20.118;2023-02-13T01:03:42;26.90;;;13.40;;
35847;SDS011;22332;51.954;20.118;2023-02-13T01:06:47;31.80;;;14.10;;
35847;SDS011;22332;51.954;20.118;2023-02-13T01:09:53;31.80;;;14.20;;
35847;SDS011;22332;51.954;20.118;2023-02-13T01:12:58;25.00;;;13.40;;
35847;SDS011;22332;51.954;20.118;2023-02-13T01:16:04;24.30;;;12.70;;
35847;SDS011;22332;51.954;20.118;2023-02-13T01:19:10;22.60;;;12.00;;
35847;SDS011;22332;51.954;20.118;2023-02-13T01:22:16;18.30;;;10.00;;
35847;SDS011;22332;51.954;20.118;2023-02-13T01:25:21;23.00;;;11.50;;
35847;SDS011;22332;51.954;20.118;2023-02-13T01:28:27;20.30;;;11.10;;
35847;SDS011;22332;51.954;20.118;2023-02-13T01:31:33;17.90;;;10.70;;
35847;SDS011;22332;51.954;20.118;2023-02-13T01:34:38;18.50;;;10.60;;
35847;SDS011;22332;51.954;20.118;2023-02-13T01:37:44;21.30;;;11.20;;
35847;SDS011;22332;51.954;20.118;2023-02-13T01:40:50;16.40;;;9.90;;
35847;SDS011;22332;51.954;20.118;2023-02-13T01:43:57;18.20;;;10.30;;
35847;SDS011;22332;51.954;20.118;2023-02-13T01:47:04;17.90;;;9.80;;
35847;SDS011;22332;51.954;20.118;2023-02-13T01:50:12;19.20;;;10.30;;
35847;SDS011;22332;51.954;20.118;2023-02-13T01:53:20;20.90;;;12.00;;
35847;SDS011;22332;51.954;20.118;2023-02-13T01:56:31;19.60;;;10.30;;
35847;SDS011;22332;51.954;20.118;2023-02-13T01:59:41;36.70;;;20.80;;
35847;SDS011;22332;51.954;20.118;2023-02-13T02:02:53;21.10;;;11.50;;
35847;SDS011;22332;51.954;20.118;2023-02-13T02:06:04;17.20;;;9.00;;
35847;SDS011;22332;51.954;20.118;2023-02-13T02:09:14;26.70;;;10.90;;
35847;SDS011;22332;51.954;20.118;2023-02-13T02:12:25;27.30;;;10.70;;
35847;SDS011;22332;51.954;20.118;2023-02-13T02:15:35;25.90;;;11.80;;
35847;SDS011;22332;51.954;20.118;2023-02-13T02:18:41;24.00;;;11.30;;
35847;SDS011;22332;51.954;20.118;2023-02-13T02:21:57;24.40;;;11.30;;
35847;SDS011;22332;51.954;20.118;2023-02-13T02:25:34;27.20;;;12.30;;
35847;SDS011;22332;51.954;20.118;2023-02-13T02:36:12;21.60;;;10.20;;
35847;SDS011;22332;51.954;20.118;2023-02-13T02:39:28;21.30;;;10.40;;
35847;SDS011;22332;51.954;20.118;2023-02-13T02:42:40;22.30;;;11.50;;
35847;SDS011;22332;51.954;20.118;2023-02-13T02:45:53;26.50;;;12.90;;
35847;SDS011;22332;51.954;20.118;2023-02-13T02:49:07;20.80;;;11.40;;
35847;SDS011;22332;51.954;20.118;2023-02-13T02:52:39;17.00;;;10.00;;
35847;SDS011;22332;51.954;20.118;2023-02-13T02:55:51;17.70;;;8.90;;
35847;SDS011;22332;51.954;20.118;2023-02-13T02:59:08;19.80;;;9.00;;
35847;SDS011;22332;51.954;20.118;2023-02-13T03:02:37;20.10;;;10.70;;
35847;SDS011;22332;51.954;20.118;2023-02-13T03:06:00;17.60;;;10.10;;
35847;SDS011;22332;51.954;20.118;2023-02-13T03:09:14;20.10;;;9.30;;
35847;SDS011;22332;51.954;20.118;2023-02-13T03:12:41;17.60;;;9.60;;
35847;SDS011;22332;51.954;20.118;2023-02-13T03:16:10;17.00;;;10.00;;
35847;SDS011;22332;51.954;20.118;2023-02-13T03:19:49;14.70;;;8.40;;
35847;SDS011;22332;51.954;20.118;2023-02-13T03:23:21;14.40;;;8.50;;
35847;SDS011;22332;51.954;20.118;2023-02-13T03:26:36;17.50;;;9.20;;
35847;SDS011;22332;51.954;20.118;2023-02-13T03:29:53;17.40;;;9.40;;
35847;SDS011;22332;51.954;20.118;2023-02-13T03:33:13;17.60;;;8.90;;
35847;SDS011;22332;51.954;20.118;2023-02-13T03:36:30;32.50;;;13.80;;
35847;SDS011;22332;51.954;20.118;2023-02-13T03:40:02;54.40;;;21.10;;
35847;SDS011;22332;51.954;20.118;2023-02-13T03:43:12;222.20;;;66.60;;
35847;SDS011;22332;51.954;20.118;2023-02-13T03:46:21;90.00;;;30.60;;
35847;SDS011;22332;51.954;20.118;2023-02-13T03:49:29;130.40;;;41.80;;
35847;SDS011;22332;51.954;20.118;2023-02-13T03:52:57;76.00;;;27.20;;
35847;SDS011;22332;51.954;20.118;2023-02-13T03:56:06;48.40;;;18.70;;
35847;SDS011;22332;51.954;20.118;2023-02-13T03:59:34;40.60;;;15.80;;
35847;SDS011;22332;51.954;20.118;2023-02-13T04:02:42;25.90;;;11.90;;
35847;SDS011;22332;51.954;20.118;2023-02-13T04:05:56;193.70;;;52.30;;
35847;SDS011;22332;51.954;20.118;2023-02-13T04:09:09;83.10;;;30.40;;
35847;SDS011;22332;51.954;20.118;2023-02-13T04:12:15;70.20;;;25.10;;
35847;SDS011;22332;51.954;20.118;2023-02-13T04:15:30;92.40;;;39.60;;
35847;SDS011;22332;51.954;20.118;2023-02-13T04:18:40;28.50;;;14.30;;
35847;SDS011;22332;51.954;20.118;2023-02-13T04:21:48;35.60;;;15.20;;
35847;SDS011;22332;51.954;20.118;2023-02-13T04:24:58;305.20;;;82.60;;
35847;SDS011;22332;51.954;20.118;2023-02-13T04:28:04;1037.90;;;315.60;;
35847;SDS011;22332;51.954;20.118;2023-02-13T04:31:10;502.20;;;167.90;;
35847;SDS011;22332;51.954;20.118;2023-02-13T04:34:16;34.60;;;16.10;;
35847;SDS011;22332;51.954;20.118;2023-02-13T04:37:22;43.20;;;18.40;;
35847;SDS011;22332;51.954;20.118;2023-02-13T04:40:27;112.90;;;57.20;;
35847;SDS011;22332;51.954;20.118;2023-02-13T04:43:33;105.90;;;54.30;;
35847;SDS011;22332;51.954;20.118;2023-02-13T04:46:39;61.50;;;31.40;;
35847;SDS011;22332;51.954;20.118;2023-02-13T04:49:44;48.00;;;23.50;;
35847;SDS011;22332;51.954;20.118;2023-02-13T04:52:50;29.60;;;16.20;;
35847;SDS011;22332;51.954;20.118;2023-02-13T04:55:57;22.40;;;12.50;;
35847;SDS011;22332;51.954;20.118;2023-02-13T04:59:03;235.00;;;85.30;;
35847;SDS011;22332;51.954;20.118;2023-02-13T05:02:08;276.70;;;87.30;;
35847;SDS011;22332;51.954;20.118;2023-02-13T05:05:14;135.40;;;39.30;;
35847;SDS011;22332;51.954;20.118;2023-02-13T05:08:20;415.50;;;111.20;;
35847;SDS011;22332;51.954;20.118;2023-02-13T05:11:26;344.10;;;81.70;;
35847;SDS011;22332;51.954;20.118;2023-02-13T05:14:31;631.20;;;179.60;;
35847;SDS011;22332;51.954;20.118;2023-02-13T05:17:37;569.90;;;155.20;;
35847;SDS011;22332;51.954;20.118;2023-02-13T05:20:42;1306.60;;;438.40;;
35847;SDS011;22332;51.954;20.118;2023-02-13T05:24:08;1207.30;;;411.30;;
35847;SDS011;22332;51.954;20.118;2023-02-13T05:27:14;904.00;;;294.70;;
35847;SDS011;22332;51.954;20.118;2023-02-13T05:30:19;493.80;;;134.40;;
35847;SDS011;22332;51.954;20.118;2023-02-13T05:33:25;975.00;;;282.80;;
35847;SDS011;22332;51.954;20.118;2023-02-13T05:36:31;427.10;;;100.90;;
35847;SDS011;22332;51.954;20.118;2023-02-13T05:39:37;681.80;;;192.10;;
35847;SDS011;22332;51.954;20.118;2023-02-13T05:42:42;370.30;;;96.20;;
35847;SDS011;22332;51.954;20.118;2023-02-13T05:45:48;346.00;;;99.90;;
35847;SDS011;22332;51.954;20.118;2023-02-13T05:48:53;533.80;;;179.00;;
35847;SDS011;22332;51.954;20.118;2023-02-13T05:51:59;224.50;;;68.70;;
35847;SDS011;22332;51.954;20.118;2023-02-13T05:55:05;478.30;;;187.90;;
35847;SDS011;22332;51.954;20.118;2023-02-13T05:58:11;335.90;;;144.60;;
35847;SDS011;22332;51.954;20.118;2023-02-13T06:01:17;358.50;;;169.80;;
35847;SDS011;22332;51.954;20.118;2023-02-13T06:04:22;347.20;;;165.60;;
35847;SDS011;22332;51.954;20.118;2023-02-13T06:07:28;93.90;;;45.80;;
35847;SDS011;22332;51.954;20.118;2023-02-13T06:10:33;41.10;;;21.40;;
35847;SDS011;22332;51.954;20.118;2023-02-13T06:13:39;33.80;;;19.90;;
35847;SDS011;22332;51.954;20.118;2023-02-13T06:16:44;25.50;;;14.60;;
35847;SDS011;22332;51.954;20.118;2023-02-13T06:19:50;18.50;;;10.90;;
35847;SDS011;22332;51.954;20.118;2023-02-13T06:22:55;17.90;;;9.30;;
35847;SDS011;22332;51.954;20.118;2023-02-13T06:26:02;17.60;;;10.10;;
35847;SDS011;22332;51.954;20.118;2023-02-13T06:29:09;17.30;;;10.10;;
35847;SDS011;22332;51.954;20.118;2023-02-13T06:32:14;16.70;;;9.90;;
35847;SDS011;22332;51.954;20.118;2023-02-13T06:35:20;18.40;;;10.40;;
35847;SDS011;22332;51.954;20.118;2023-02-13T06:38:25;17.50;;;11.80;;
35847;SDS011;22332;51.954;20.118;2023-02-13T06:41:31;17.30;;;9.50;;
35847;SDS011;22332;51.954;20.118;2023-02-13T06:44:36;17.80;;;8.10;;
35847;SDS011;22332;51.954;20.118;2023-02-13T06:47:43;16.80;;;9.10;;
35847;SDS011;22332;51.954;20.118;2023-02-13T06:50:50;16.40;;;9.60;;
35847;SDS011;22332;51.954;20.118;2023-02-13T06:53:56;18.00;;;9.30;;
35847;SDS011;22332;51.954;20.118;2023-02-13T06:57:01;18.40;;;9.60;;
35847;SDS011;22332;51.954;20.118;2023-02-13T07:00:08;15.00;;;8.70;;
35847;SDS011;22332;51.954;20.118;2023-02-13T07:03:15;17.10;;;9.10;;
35847;SDS011;22332;51.954;20.118;2023-02-13T07:06:21;14.20;;;7.80;;
35847;SDS011;22332;51.954;20.118;2023-02-13T07:09:26;14.70;;;7.80;;
35847;SDS011;22332;51.954;20.118;2023-02-13T07:12:33;14.70;;;7.70;;
35847;SDS011;22332;51.954;20.118;2023-02-13T07:15:39;14.40;;;7.80;;
35847;SDS011;22332;51.954;20.118;2023-02-13T07:18:44;16.00;;;8.30;;
35847;SDS011;22332;51.954;20.118;2023-02-13T07:21:50;15.00;;;8.60;;
35847;SDS011;22332;51.954;20.118;2023-02-13T07:24:56;86.90;;;35.50;;
35847;SDS011;22332;51.954;20.118;2023-02-13T07:28:03;335.00;;;110.80;;
35847;SDS011;22332;51.954;20.118;2023-02-13T07:31:09;99.20;;;30.70;;
35847;SDS011;22332;51.954;20.118;2023-02-13T07:34:15;108.80;;;31.00;;
35847;SDS011;22332;51.954;20.118;2023-02-13T07:37:20;33.80;;;12.90;;
35847;SDS011;22332;51.954;20.118;2023-02-13T07:40:26;164.60;;;43.10;;
35847;SDS011;22332;51.954;20.118;2023-02-13T07:43:32;538.30;;;162.60;;
35847;SDS011;22332;51.954;20.118;2023-02-13T07:46:37;817.00;;;273.10;;
35847;SDS011;22332;51.954;20.118;2023-02-13T07:49:43;769.40;;;256.20;;
35847;SDS011;22332;51.954;20.118;2023-02-13T07:52:53;754.30;;;251.80;;
35847;SDS011;22332;51.954;20.118;2023-02-13T07:55:58;353.60;;;90.90;;
35847;SDS011;22332;51.954;20.118;2023-02-13T07:59:10;546.90;;;180.10;;
35847;SDS011;22332;51.954;20.118;2023-02-13T08:02:15;59.10;;;21.90;;
35847;SDS011;22332;51.954;20.118;2023-02-13T08:05:21;241.70;;;77.90;;
35847;SDS011;22332;51.954;20.118;2023-02-13T08:08:26;228.40;;;76.20;;
35847;SDS011;22332;51.954;20.118;2023-02-13T08:11:32;219.00;;;91.30;;
35847;SDS011;22332;51.954;20.118;2023-02-13T08:14:51;333.70;;;156.10;;
35847;SDS011;22332;51.954;20.118;2023-02-13T08:17:57;57.80;;;30.30;;
35847;SDS011;22332;51.954;20.118;2023-02-13T08:21:03;48.90;;;25.70;;
35847;SDS011;22332;51.954;20.118;2023-02-13T08:24:08;29.20;;;15.00;;
35847;SDS011;22332;51.954;20.118;2023-02-13T08:27:14;19.20;;;11.50;;
35847;SDS011;22332;51.954;20.118;2023-02-13T08:30:20;13.40;;;9.00;;
35847;SDS011;22332;51.954;20.118;2023-02-13T08:33:26;13.30;;;8.50;;
35847;SDS011;22332;51.954;20.118;2023-02-13T08:36:32;13.20;;;8.50;;
35847;SDS011;22332;51.954;20.118;2023-02-13T08:39:38;14.90;;;9.30;;
35847;SDS011;22332;51.954;20.118;2023-02-13T08:42:43;12.90;;;7.80;;
35847;SDS011;22332;51.954;20.118;2023-02-13T08:45:49;10.50;;;7.70;;
35847;SDS011;22332;51.954;20.118;2023-02-13T08:48:55;11.20;;;7.80;;
35847;SDS011;22332;51.954;20.118;2023-02-13T08:52:00;21.00;;;15.50;;
35847;SDS011;22332;51.954;20.118;2023-02-13T08:55:06;12.70;;;8.30;;
35847;SDS011;22332;51.954;20.118;2023-02-13T08:58:12;10.90;;;7.20;;
35847;SDS011;22332;51.954;20.118;2023-02-13T09:01:17;10.30;;;6.30;;
35847;SDS011;22332;51.954;20.118;2023-02-13T09:04:23;16.40;;;9.50;;
35847;SDS011;22332;51.954;20.118;2023-02-13T09:07:29;10.00;;;7.30;;
35847;SDS011;22332;51.954;20.118;2023-02-13T09:10:35;10.50;;;7.20;;
35847;SDS011;22332;51.954;20.118;2023-02-13T09:13:41;12.10;;;7.50;;
35847;SDS011;22332;51.954;20.118;2023-02-13T09:16:46;11.30;;;7.40;;
35847;SDS011;22332;51.954;20.118;2023-02-13T09:19:52;11.00;;;7.20;;
35847;SDS011;22332;51.954;20.118;2023-02-13T09:22:57;9.60;;;6.70;;
35847;SDS011;22332;51.954;20.118;2023-02-13T09:26:04;11.90;;;8.00;;
35847;SDS011;22332;51.954;20.118;2023-02-13T09:29:11;12.50;;;7.70;;
35847;SDS011;22332;51.954;20.118;2023-02-13T09:32:17;13.60;;;8.90;;
35847;SDS011;22332;51.954;20.118;2023-02-13T09:35:22;12.00;;;8.80;;
35847;SDS011;22332;51.954;20.118;2023-02-13T09:38:28;12.70;;;8.10;;
35847;SDS011;22332;51.954;20.118;2023-02-13T09:41:34;11.80;;;8.00;;
35847;SDS011;22332;51.954;20.118;2023-02-13T09:44:42;15.00;;;8.60;;
35847;SDS011;22332;51.954;20.118;2023-02-13T09:47:49;11.30;;;8.50;;
35847;SDS011;22332;51.954;20.118;2023-02-13T09:50:55;13.80;;;9.10;;
35847;SDS011;22332;51.954;20.118;2023-02-13T09:54:01;18.20;;;10.80;;
35847;SDS011;22332;51.954;20.118;2023-02-13T09:57:12;15.90;;;9.70;;
35847;SDS011;22332;51.954;20.118;2023-02-13T10:00:24;18.20;;;10.60;;
35847;SDS011;22332;51.954;20.118;2023-02-13T10:03:36;11.60;;;7.90;;
35847;SDS011;22332;51.954;20.118;2023-02-13T10:06:48;12.60;;;8.10;;
35847;SDS011;22332;51.954;20.118;2023-02-13T10:10:06;13.70;;;8.70;;
35847;SDS011;22332;51.954;20.118;2023-02-13T10:13:25;10.90;;;8.00;;
35847;SDS011;22332;51.954;20.118;2023-02-13T10:16:42;11.50;;;8.50;;
35847;SDS011;22332;51.954;20.118;2023-02-13T10:19:53;9.40;;;7.00;;
35847;SDS011;22332;51.954;20.118;2023-02-13T10:23:07;9.80;;;6.70;;
35847;SDS011;22332;51.954;20.118;2023-02-13T10:26:20;13.60;;;7.80;;
35847;SDS011;22332;51.954;20.118;2023-02-13T10:29:44;13.50;;;7.60;;
35847;SDS011;22332;51.954;20.118;2023-02-13T10:33:12;9.00;;;6.30;;
35847;SDS011;22332;51.954;20.118;2023-02-13T10:36:22;10.30;;;6.40;;
35847;SDS011;22332;51.954;20.118;2023-02-13T10:39:30;10.10;;;5.40;;
35847;SDS011;22332;51.954;20.118;2023-02-13T10:42:37;7.20;;;4.50;;
35847;SDS011;22332;51.954;20.118;2023-02-13T10:45:53;6.50;;;3.80;;
35847;SDS011;22332;51.954;20.118;2023-02-13T10:49:10;6.70;;;4.60;;
35847;SDS011;22332;51.954;20.118;2023-02-13T10:52:31;6.70;;;4.30;;
35847;SDS011;22332;51.954;20.118;2023-02-13T10:55:54;5.80;;;3.70;;
35847;SDS011;22332;51.954;20.118;2023-02-13T10:59:16;6.50;;;4.40;;
35847;SDS011;22332;51.954;20.118;2023-02-13T11:02:47;6.50;;;3.90;;
35847;SDS011;22332;51.954;20.118;2023-02-13T11:05:54;6.40;;;4.00;;
35847;SDS011;22332;51.954;20.118;2023-02-13T11:09:01;5.70;;;3.50;;
35847;SDS011;22332;51.954;20.118;2023-02-13T11:12:23;7.00;;;3.40;;
35847;SDS011;22332;51.954;20.118;2023-02-13T11:15:31;6.10;;;3.80;;
35847;SDS011;22332;51.954;20.118;2023-02-13T11:18:39;8.30;;;5.10;;
35847;SDS011;22332;51.954;20.118;2023-02-13T11:21:56;41.30;;;18.60;;
35847;SDS011;22332;51.954;20.118;2023-02-13T11:25:05;16.30;;;7.50;;
35847;SDS011;22332;51.954;20.118;2023-02-13T11:28:20;32.60;;;13.60;;
35847;SDS011;22332;51.954;20.118;2023-02-13T11:31:27;170.50;;;71.80;;
35847;SDS011;22332;51.954;20.118;2023-02-13T11:34:34;100.30;;;36.20;;
35847;SDS011;22332;51.954;20.118;2023-02-13T11:37:40;221.90;;;63.90;;
35847;SDS011;22332;51.954;20.118;2023-02-13T11:40:46;16.40;;;7.40;;
35847;SDS011;22332;51.954;20.118;2023-02-13T11:43:54;37.10;;;13.60;;
35847;SDS011;22332;51.954;20.118;2023-02-13T11:47:03;19.10;;;7.90;;
35847;SDS011;22332;51.954;20.118;2023-02-13T11:50:23;22.10;;;10.10;;
35847;SDS011;22332;51.954;20.118;2023-02-13T11:53:31;6.90;;;4.70;;
35847;SDS011;22332;51.954;20.118;2023-02-13T11:56:48;148.60;;;69.40;;
35847;SDS011;22332;51.954;20.118;2023-02-13T11:59:55;60.90;;;29.80;;
35847;SDS011;22332;51.954;20.118;2023-02-13T12:03:02;8.20;;;5.60;;
35847;SDS011;22332;51.954;20.118;2023-02-13T12:06:27;36.60;;;20.50;;
35847;SDS011;22332;51.954;20.118;2023-02-13T12:09:41;12.60;;;7.20;;
35847;SDS011;22332;51.954;20.118;2023-02-13T12:12:52;10.00;;;6.60;;
35847;SDS011;22332;51.954;20.118;2023-02-13T12:15:59;11.70;;;6.30;;
35847;SDS011;22332;51.954;20.118;2023-02-13T12:19:09;12.60;;;7.30;;
35847;SDS011;22332;51.954;20.118;2023-02-13T12:22:24;10.00;;;6.70;;
35847;SDS011;22332;51.954;20.118;2023-02-13T12:25:44;6.40;;;4.50;;
35847;SDS011;22332;51.954;20.118;2023-02-13T12:29:00;9.60;;;4.90;;
35847;SDS011;22332;51.954;20.118;2023-02-13T12:32:18;8.50;;;5.00;;
35847;SDS011;22332;51.954;20.118;2023-02-13T12:35:30;7.80;;;4.50;;
35847;SDS011;22332;51.954;20.118;2023-02-13T12:38:47;17.20;;;10.20;;
35847;SDS011;22332;51.954;20.118;2023-02-13T12:42:15;15.70;;;9.40;;
35847;SDS011;22332;51.954;20.118;2023-02-13T12:45:33;8.60;;;5.00;;
35847;SDS011;22332;51.954;20.118;2023-02-13T12:51:55;17.00;;;8.40;;
35847;SDS011;22332;51.954;20.118;2023-02-13T12:55:18;8.70;;;4.90;;
35847;SDS011;22332;51.954;20.118;2023-02-13T12:58:40;25.50;;;15.40;;
35847;SDS011;22332;51.954;20.118;2023-02-13T13:02:02;7.40;;;4.70;;
35847;SDS011;22332;51.954;20.118;2023-02-13T13:05:29;32.00;;;21.80;;
35847;SDS011;22332;51.954;20.118;2023-02-13T13:08:48;15.10;;;10.30;;
35847;SDS011;22332;51.954;20.118;2023-02-13T13:12:09;10.70;;;6.40;;
35847;SDS011;22332;51.954;20.118;2023-02-13T13:15:24;10.00;;;6.10;;
35847;SDS011;22332;51.954;20.118;2023-02-13T13:18:46;9.80;;;6.00;;
35847;SDS011;22332;51.954;20.118;2023-02-13T13:22:06;8.30;;;5.10;;
35847;SDS011;22332;51.954;20.118;2023-02-13T13:25:19;7.90;;;5.40;;
35847;SDS011;22332;51.954;20.118;2023-02-13T13:28:33;7.20;;;5.00;;
35847;SDS011;22332;51.954;20.118;2023-02-13T13:31:43;8.20;;;5.20;;
35847;SDS011;22332;51.954;20.118;2023-02-13T13:34:55;8.40;;;5.30;;
35847;SDS011;22332;51.954;20.118;2023-02-13T13:38:03;10.30;;;5.70;;
35847;SDS011;22332;51.954;20.118;2023-02-13T13:41:16;8.80;;;5.50;;
35847;SDS011;22332;51.954;20.118;2023-02-13T13:51:39;10.60;;;5.90;;
35847;SDS011;22332;51.954;20.118;2023-02-13T13:54:45;16.90;;;10.90;;
35847;SDS011;22332;51.954;20.118;2023-02-13T13:57:58;26.00;;;16.20;;
35847;SDS011;22332;51.954;20.118;2023-02-13T14:01:22;19.30;;;11.60;;
35847;SDS011;22332;51.954;20.118;2023-02-13T14:04:38;15.30;;;8.70;;
35847;SDS011;22332;51.954;20.118;2023-02-13T14:08:08;10.00;;;6.60;;
35847;SDS011;22332;51.954;20.118;2023-02-13T14:11:46;9.80;;;6.30;;
35847;SDS011;22332;51.954;20.118;2023-02-13T14:14:51;11.80;;;7.20;;
35847;SDS011;22332;51.954;20.118;2023-02-13T14:17:58;16.30;;;8.20;;
35847;SDS011;22332;51.954;20.118;2023-02-13T14:21:07;12.50;;;7.90;;
35847;SDS011;22332;51.954;20.118;2023-02-13T14:24:15;13.50;;;7.80;;
35847;SDS011;22332;51.954;20.118;2023-02-13T14:27:23;10.90;;;7.20;;
35847;SDS011;22332;51.954;20.118;2023-02-13T14:30:33;12.20;;;7.50;;
35847;SDS011;22332;51.954;20.118;2023-02-13T14:33:41;13.30;;;7.00;;
35847;SDS011;22332;51.954;20.118;2023-02-13T14:36:47;12.30;;;6.50;;
35847;SDS011;22332;51.954;20.118;2023-02-13T14:43:50;16.00;;;8.00;;
35847;SDS011;22332;51.954;20.118;2023-02-13T14:46:57;16.10;;;8.40;;
35847;SDS011;22332;51.954;20.118;2023-02-13T14:50:06;20.00;;;9.50;;
35847;SDS011;22332;51.954;20.118;2023-02-13T14:53:19;19.80;;;10.80;;
35847;SDS011;22332;51.954;20.118;2023-02-13T14:56:28;23.40;;;12.40;;
35847;SDS011;22332;51.954;20.118;2023-02-13T14:59:37;83.90;;;33.70;;
35847;SDS011;22332;51.954;20.118;2023-02-13T15:02:46;38.30;;;15.70;;
35847;SDS011;22332;51.954;20.118;2023-02-13T15:05:56;26.50;;;12.00;;
35847;SDS011;22332;51.954;20.118;2023-02-13T15:09:11;195.20;;;59.20;;
35847;SDS011;22332;51.954;20.118;2023-02-13T15:12:28;29.00;;;12.10;;
35847;SDS011;22332;51.954;20.118;2023-02-13T15:15:34;24.50;;;10.80;;
35847;SDS011;22332;51.954;20.118;2023-02-13T15:18:41;127.10;;;36.90;;
35847;SDS011;22332;51.954;20.118;2023-02-13T15:21:55;180.20;;;51.00;;
35847;SDS011;22332;51.954;20.118;2023-02-13T15:25:03;100.00;;;27.70;;
35847;SDS011;22332;51.954;20.118;2023-02-13T15:28:14;122.40;;;34.80;;
35847;SDS011;22332;51.954;20.118;2023-02-13T15:31:23;232.00;;;64.20;;
35847;SDS011;22332;51.954;20.118;2023-02-13T15:34:34;492.80;;;153.80;;
35847;SDS011;22332;51.954;20.118;2023-02-13T15:37:39;324.00;;;112.10;;
35847;SDS011;22332;51.954;20.118;2023-02-13T15:40:45;311.90;;;108.90;;
35847;SDS011;22332;51.954;20.118;2023-02-13T15:43:55;149.70;;;69.00;;
35847;SDS011;22332;51.954;20.118;2023-02-13T15:47:02;123.10;;;55.30;;
35847;SDS011;22332;51.954;20.118;2023-02-13T15:53:27;48.60;;;26.40;;
35847;SDS011;22332;51.954;20.118;2023-02-13T15:56:32;77.20;;;39.00;;
35847;SDS011;22332;51.954;20.118;2023-02-13T15:59:40;47.70;;;31.10;;
35847;SDS011;22332;51.954;20.118;2023-02-13T16:02:46;37.40;;;24.40;;
35847;SDS011;22332;51.954;20.118;2023-02-13T16:05:52;42.30;;;27.80;;
35847;SDS011;22332;51.954;20.118;2023-02-13T16:08:58;22.10;;;13.70;;
35847;SDS011;22332;51.954;20.118;2023-02-13T16:12:05;20.20;;;12.90;;
35847;SDS011;22332;51.954;20.118;2023-02-13T16:15:20;17.80;;;10.10;;
35847;SDS011;22332;51.954;20.118;2023-02-13T16:18:29;15.00;;;9.30;;
35847;SDS011;22332;51.954;20.118;2023-02-13T16:21:35;17.70;;;11.20;;
35847;SDS011;22332;51.954;20.118;2023-02-13T16:24:44;17.50;;;11.00;;
35847;SDS011;22332;51.954;20.118;2023-02-13T16:27:53;25.90;;;18.00;;
35847;SDS011;22332;51.954;20.118;2023-02-13T16:31:01;42.30;;;25.20;;
35847;SDS011;22332;51.954;20.118;2023-02-13T16:34:14;19.80;;;13.10;;
35847;SDS011;22332;51.954;20.118;2023-02-13T16:37:28;22.30;;;13.90;;
35847;SDS011;22332;51.954;20.118;2023-02-13T16:40:36;17.00;;;9.70;;
35847;SDS011;22332;51.954;20.118;2023-02-13T16:43:44;168.50;;;61.30;;
35847;SDS011;22332;51.954;20.118;2023-02-13T16:46:54;201.90;;;62.90;;
35847;SDS011;22332;51.954;20.118;2023-02-13T16:50:01;469.70;;;158.80;;
35847;SDS011;22332;51.954;20.118;2023-02-13T16:53:06;214.30;;;70.30;;
35847;SDS011;22332;51.954;20.118;2023-02-13T16:56:12;76.10;;;27.30;;
35847;SDS011;22332;51.954;20.118;2023-02-13T16:59:22;36.80;;;18.60;;
35847;SDS011;22332;51.954;20.118;2023-02-13T17:02:34;137.40;;;48.10;;
35847;SDS011;22332;51.954;20.118;2023-02-13T17:05:41;36.90;;;18.00;;
35847;SDS011;22332;51.954;20.118;2023-02-13T17:08:47;32.00;;;16.50;;
35847;SDS011;22332;51.954;20.118;2023-02-13T17:11:55;20.40;;;11.90;;
35847;SDS011;22332;51.954;20.118;2023-02-13T17:15:00;81.40;;;34.70;;
35847;SDS011;22332;51.954;20.118;2023-02-13T17:18:07;24.80;;;14.30;;
35847;SDS011;22332;51.954;20.118;2023-02-13T17:21:13;22.80;;;13.90;;
35847;SDS011;22332;51.954;20.118;2023-02-13T17:24:19;37.80;;;20.20;;
35847;SDS011;22332;51.954;20.118;2023-02-13T17:27:24;22.80;;;12.50;;
35847;SDS011;22332;51.954;20.118;2023-02-13T17:30:30;20.90;;;11.60;;
35847;SDS011;22332;51.954;20.118;2023-02-13T17:33:37;27.20;;;15.20;;
35847;SDS011;22332;51.954;20.118;2023-02-13T17:36:43;22.00;;;12.70;;
35847;SDS011;22332;51.954;20.118;2023-02-13T17:39:50;22.50;;;13.50;;
35847;SDS011;22332;51.954;20.118;2023-02-13T17:42:58;28.30;;;17.80;;
35847;SDS011;22332;51.954;20.118;2023-02-13T17:46:06;17.60;;;10.90;;
35847;SDS011;22332;51.954;20.118;2023-02-13T17:49:12;15.50;;;9.20;;
35847;SDS011;22332;51.954;20.118;2023-02-13T17:52:18;24.30;;;15.70;;
35847;SDS011;22332;51.954;20.118;2023-02-13T17:55:27;18.50;;;11.40;;
35847;SDS011;22332;51.954;20.118;2023-02-13T17:58:33;12.60;;;8.20;;
35847;SDS011;22332;51.954;20.118;2023-02-13T18:01:39;15.30;;;9.20;;
35847;SDS011;22332;51.954;20.118;2023-02-13T18:04:44;21.70;;;13.10;;
35847;SDS011;22332;51.954;20.118;2023-02-13T18:07:50;16.80;;;10.60;;
35847;SDS011;22332;51.954;20.118;2023-02-13T18:10:56;22.40;;;11.90;;
35847;SDS011;22332;51.954;20.118;2023-02-13T18:14:01;26.10;;;13.40;;
35847;SDS011;22332;51.954;20.118;2023-02-13T18:17:07;12.60;;;8.20;;
35847;SDS011;22332;51.954;20.118;2023-02-13T18:20:14;14.60;;;8.50;;
35847;SDS011;22332;51.954;20.118;2023-02-13T18:23:21;14.40;;;8.00;;
35847;SDS011;22332;51.954;20.118;2023-02-13T18:26:27;11.90;;;7.40;;
35847;SDS011;22332;51.954;20.118;2023-02-13T18:29:33;24.50;;;13.50;;
35847;SDS011;22332;51.954;20.118;2023-02-13T18:32:39;74.00;;;36.30;;
35847;SDS011;22332;51.954;20.118;2023-02-13T18:35:44;41.00;;;19.70;;
35847;SDS011;22332;51.954;20.118;2023-02-13T18:38:50;99.00;;;67.10;;
35847;SDS011;22332;51.954;20.118;2023-02-13T18:41:56;117.30;;;44.00;;